• Join FlightAware (Why Join?)
  • Login
  • US Flag 
02:43PM EDT


 

Airport Tracker/Info


-or-


 

Live Flight TrackerFlight Track Log ✈ N34996 ✈ 20-Aug-2013 ✈ T74 - KLBX

Flight Track Log - Related Links

Times and Time Zones

All times are in EDT time to prevent confusion due to time zone crossing. See the N34996 flight status page for this flight to view local times or setup timezone preferences in your user account.

Time Position Orientation Groundspeed Altitude Reporting Facility
EDT Latitude Longitude Course Direction KTS MPH feet Rate Location/Type
05:34PM 30.4911 -97.3650 130° Southeast 92 106 2,100  Level Houston Center
05:35PM 30.4736 -97.3431 133° Southeast 92 106 2,500 360 Climbing Houston Center
05:36PM 30.4592 -97.3231 130° Southeast 86 99 2,900 300 Climbing Houston Center
05:37PM 30.4458 -97.3067 133° Southeast 75 86 3,200 240 Climbing Houston Center
05:38PM 30.4521 -97.2763 130° Southeast  Level Estimated
05:38PM 30.4283 -97.2881 137° Southeast 80 92 3,400  Level Houston Center
05:39PM 30.4320 -97.2485 130° Southeast  Level Estimated
05:39PM 30.4114 -97.2669 133° Southeast 87 100 3,500  Level Houston Center
05:40PM 30.3942 -97.2453 133° Southeast 90 104 3,800 300 Climbing Houston Center
05:41PM 30.3769 -97.2211 130° Southeast 85 98 4,200 300 Climbing Houston Center
05:42PM 30.3619 -97.2028 133° Southeast 80 92 4,500 240 Climbing Houston Center
05:43PM 30.3456 -97.1836 135° Southeast 81 93 4,800 240 Climbing Houston Center
05:44PM 30.3292 -97.1611 130° Southeast 87 100 5,000 120 Climbing Houston Center
05:45PM 30.3067 -97.1389 140° Southeast 99 114 5,100  Climbing Houston Center
05:46PM 30.2850 -97.1136 135° Southeast 106 122 5,100  Level Houston Center
05:47PM 30.2639 -97.0881 134° Southeast 108 124 5,100  Level Houston Center
05:48PM 30.2481 -97.0531 118° Southeast 105 121 5,100  Level Houston Center
05:49PM 30.2403 -97.0400 125° Southeast 106 122 5,100 -120 Level Houston Center
05:50PM 30.2231 -97.0103 124° Southeast 107 123 5,000  Descending Houston Center
05:50PM 30.2172 -96.9958 115° Southeast 104 120 5,100 60 Climbing Houston Center
05:51PM 30.2019 -96.9656 120° Southeast 105 121 5,100  Level Houston Center
05:52PM 30.1911 -96.9511 131° Southeast 111 128 5,100  Level Houston Center
05:52PM 30.1867 -96.9364 109° East 106 122 5,100 60 Level Houston Center
05:53PM 30.1694 -96.9067 124° Southeast 110 127 5,200 -120 Climbing Houston Center
05:54PM 30.1569 -96.8894 130° Southeast 107 123 5,000  Descending Houston Center
05:54PM 30.1528 -96.8772 112° Southeast 109 125 5,200 60 Climbing Houston Center
05:55PM 30.1386 -96.8483 120° Southeast 103 119 5,100 -120 Descending Houston Center
05:56PM 30.1269 -96.8275 123° Southeast 106 122 5,100  Level Houston Center
05:57PM 30.1047 -96.7850 121° Southeast 107 123 5,100  Level Houston Center
05:58PM 30.0881 -96.7542 122° Southeast 111 128 5,200  Climbing Houston Center
05:59PM 30.0775 -96.7361 124° Southeast 110 127 5,100  Descending Houston Center
06:00PM 30.0711 -96.7250 124° Southeast 110 127 5,200 60 Climbing Houston Center
06:01PM 30.0558 -96.6958 121° Southeast 108 124 5,200  Level Houston Center
06:02PM 30.0400 -96.6636 120° Southeast 112 129 5,200  Level Houston Center
06:03PM 30.0194 -96.6267 123° Southeast 114 131 5,200  Level Houston Center
06:04PM 30.0031 -96.5961 122° Southeast 113 130 5,200  Level Houston Center
06:05PM 29.9869 -96.5650 121° Southeast 112 129 5,200  Level Houston Center
06:06PM 29.9708 -96.5347 122° Southeast 112 129 5,200 -60 Level Houston Center
06:07PM 29.9533 -96.5036 123° Southeast 114 131 5,100 -60 Descending Houston Center
06:08PM 29.9378 -96.4725 120° Southeast 113 130 5,100 -120 Level Houston Center
06:08PM 29.9264 -96.4539 125° Southeast 108 124 5,000  Descending Houston Center
06:09PM 29.9208 -96.4456 128° Southeast 108 124 5,100 60 Climbing Houston Center
06:10PM 29.9031 -96.4106 120° Southeast 106 122 5,100  Level Houston Center
06:11PM 29.8869 -96.3797 121° Southeast 109 125 5,100  Level Houston Center
06:12PM 29.8717 -96.3508 121° Southeast 108 124 5,100  Level Houston Center
06:13PM 29.8553 -96.3211 122° Southeast 110 127 5,100  Level Houston Center
06:14PM 29.8383 -96.2911 123° Southeast 111 128 5,100  Level Houston Center
06:15PM 29.8225 -96.2614 122° Southeast 110 127 5,100  Level Houston Center
06:16PM 29.8028 -96.2250 122° Southeast 111 128 5,100  Level Houston Center
06:17PM 29.7803 -96.2000 136° Southeast 111 128 5,100  Level Houston Center
06:18PM 29.7561 -96.1747 138° Southeast 114 131 5,100  Level Houston Center
06:19PM 29.7325 -96.1481 136° Southeast 117 135 5,100  Level Houston Center
06:20PM 29.7103 -96.1228 135° Southeast 114 131 5,100  Level Houston Center
06:21PM 29.6875 -96.0978 136° Southeast 114 131 5,100  Level Houston Center
06:22PM 29.6656 -96.0731 136° Southeast 110 127 5,100  Level Houston Center
06:23PM 29.6397 -96.0444 136° Southeast 109 125 5,100  Level Houston Center
06:24PM 29.6167 -96.0186 136° Southeast 114 131 5,100  Level Houston Center
06:25PM 29.5931 -95.9925 136° Southeast 116 133 5,100  Level Houston Center
06:26PM 29.5678 -95.9647 136° Southeast 114 131 5,100  Level Houston Center
06:27PM 29.5439 -95.9400 138° Southeast 114 131 5,100  Level Houston Center
06:28PM 29.5222 -95.9150 135° Southeast 112 129 5,100  Level Houston Center
06:29PM 29.4989 -95.8894 136° Southeast 114 131 5,100  Level Houston Center
06:31PM 29.4756 -95.8639 136° Southeast 116 133 5,100  Level Houston Center
06:32PM 29.4494 -95.8344 136° Southeast 110 127 5,200  Climbing Houston Center
06:33PM 29.4264 -95.8108 138° Southeast 115 132 5,100 -60 Descending Houston Center
06:34PM 29.4031 -95.7847 136° Southeast 112 129 5,100  Level Houston Center
06:35PM 29.3797 -95.7586 136° Southeast 111 128 5,100 -60 Level Houston Center
06:36PM 29.3544 -95.7328 138° Southeast 124 143 5,000 -360 Descending Houston Center
06:37PM 29.3317 -95.7047 133° Southeast 123 142 4,400 -600 Descending Houston Center
06:38PM 29.3006 -95.6719 137° Southeast 132 152 3,800 -600 Descending Houston Center
06:39PM 29.2928 -95.6297 102° East 137 158 3,200 -540 Descending Houston Center
06:40PM 29.2886 -95.5847 96° East 141 162 2,700 -540 Descending Houston Center
06:41PM 29.2886 -95.5369 90° East 140 161 2,100 -300 Descending Houston Center
06:42PM 29.2869 -95.4997 93° East 136 157 2,100 -60 Level Houston Center
06:43PM 29.2856 -95.4597 92° East 135 155 2,000 -120 Descending Houston Center
06:45PM 29.2381 -95.4572 177° South  Level FlightAware Approximate
06:52PM 29.1086 -95.4621 132° Southeast  Level Estimated
06:53PM 29.1086 -95.4621 132° Southeast  Level Estimated
06:54PM 29.1086 -95.4621 132° Southeast  Level Estimated
06:55PM 29.1086 -95.4621 132° Southeast  Level Estimated
06:56PM 29.1086 -95.4621 132° Southeast  Level Estimated